sensor_id;sensor_type;location;lat;lon;timestamp;temperature;humidity
12386;DHT22;6257;57.634;18.310;2023-04-06T00:01:17;-0.70;99.90
12386;DHT22;6257;57.634;18.310;2023-04-06T00:03:45;-0.70;99.90
12386;DHT22;6257;57.634;18.310;2023-04-06T00:06:12;-0.70;99.90
12386;DHT22;6257;57.634;18.310;2023-04-06T00:08:39;-0.60;99.90
12386;DHT22;6257;57.634;18.310;2023-04-06T00:11:07;-0.70;99.90
12386;DHT22;6257;57.634;18.310;2023-04-06T00:13:35;-0.60;99.90
12386;DHT22;6257;57.634;18.310;2023-04-06T00:16:03;-0.70;99.90
12386;DHT22;6257;57.634;18.310;2023-04-06T00:18:30;-0.70;99.90
12386;DHT22;6257;57.634;18.310;2023-04-06T00:20:58;-0.60;99.90
12386;DHT22;6257;57.634;18.310;2023-04-06T00:23:25;-0.60;99.90
12386;DHT22;6257;57.634;18.310;2023-04-06T00:25:52;-0.60;99.90
12386;DHT22;6257;57.634;18.310;2023-04-06T00:28:19;-0.70;99.90
12386;DHT22;6257;57.634;18.310;2023-04-06T00:30:52;-0.70;99.90
12386;DHT22;6257;57.634;18.310;2023-04-06T00:33:21;-0.70;99.90
12386;DHT22;6257;57.634;18.310;2023-04-06T00:35:48;-0.80;99.90
12386;DHT22;6257;57.634;18.310;2023-04-06T00:38:16;-0.70;99.90
12386;DHT22;6257;57.634;18.310;2023-04-06T00:40:43;-0.70;99.90
12386;DHT22;6257;57.634;18.310;2023-04-06T00:43:11;-0.80;99.90
12386;DHT22;6257;57.634;18.310;2023-04-06T00:45:39;-0.80;99.90
12386;DHT22;6257;57.634;18.310;2023-04-06T00:48:08;-0.80;99.90
12386;DHT22;6257;57.634;18.310;2023-04-06T00:50:35;-0.80;99.90
12386;DHT22;6257;57.634;18.310;2023-04-06T00:53:03;-0.90;99.90
12386;DHT22;6257;57.634;18.310;2023-04-06T00:55:30;-0.90;99.90
12386;DHT22;6257;57.634;18.310;2023-04-06T00:57:58;-0.90;99.90
12386;DHT22;6257;57.634;18.310;2023-04-06T01:00:26;-1.00;99.90
12386;DHT22;6257;57.634;18.310;2023-04-06T01:02:53;-1.00;99.90
12386;DHT22;6257;57.634;18.310;2023-04-06T01:05:22;-1.10;99.90
12386;DHT22;6257;57.634;18.310;2023-04-06T01:07:49;-1.20;99.90
12386;DHT22;6257;57.634;18.310;2023-04-06T01:10:23;-1.20;99.90
12386;DHT22;6257;57.634;18.310;2023-04-06T01:12:50;-1.30;99.90
12386;DHT22;6257;57.634;18.310;2023-04-06T01:15:17;-1.30;99.90
12386;DHT22;6257;57.634;18.310;2023-04-06T01:17:45;-1.40;99.90
12386;DHT22;6257;57.634;18.310;2023-04-06T01:20:12;-1.40;99.90
12386;DHT22;6257;57.634;18.310;2023-04-06T01:22:41;-1.40;99.90
12386;DHT22;6257;57.634;18.310;2023-04-06T01:25:10;-1.40;99.90
12386;DHT22;6257;57.634;18.310;2023-04-06T01:27:37;-1.40;99.90
12386;DHT22;6257;57.634;18.310;2023-04-06T01:30:05;-1.40;99.90
12386;DHT22;6257;57.634;18.310;2023-04-06T01:32:33;-1.40;99.90
12386;DHT22;6257;57.634;18.310;2023-04-06T01:35:00;-1.30;99.90
12386;DHT22;6257;57.634;18.310;2023-04-06T01:37:27;-1.30;99.90
12386;DHT22;6257;57.634;18.310;2023-04-06T01:39:57;-1.30;99.90
12386;DHT22;6257;57.634;18.310;2023-04-06T01:42:24;-1.30;99.90
12386;DHT22;6257;57.634;18.310;2023-04-06T01:44:51;-1.30;99.90
12386;DHT22;6257;57.634;18.310;2023-04-06T01:47:20;-1.30;99.90
12386;DHT22;6257;57.634;18.310;2023-04-06T01:49:47;-1.30;99.90
12386;DHT22;6257;57.634;18.310;2023-04-06T01:52:14;-1.30;99.90
12386;DHT22;6257;57.634;18.310;2023-04-06T01:54:41;-1.40;99.90
12386;DHT22;6257;57.634;18.310;2023-04-06T01:57:10;-1.30;99.90
12386;DHT22;6257;57.634;18.310;2023-04-06T01:59:37;-1.30;99.90
12386;DHT22;6257;57.634;18.310;2023-04-06T02:02:04;-1.30;99.90
12386;DHT22;6257;57.634;18.310;2023-04-06T02:04:31;-1.20;99.90
12386;DHT22;6257;57.634;18.310;2023-04-06T02:06:58;-2.50;99.90
12386;DHT22;6257;57.634;18.310;2023-04-06T02:09:26;-1.40;99.90
12386;DHT22;6257;57.634;18.310;2023-04-06T02:11:53;-1.50;99.90
12386;DHT22;6257;57.634;18.310;2023-04-06T02:14:25;-1.50;99.90
12386;DHT22;6257;57.634;18.310;2023-04-06T02:16:54;-1.60;99.90
12386;DHT22;6257;57.634;18.310;2023-04-06T02:19:22;-1.60;99.90
12386;DHT22;6257;57.634;18.310;2023-04-06T02:21:49;-1.60;99.90
12386;DHT22;6257;57.634;18.310;2023-04-06T02:24:16;-1.60;99.90
12386;DHT22;6257;57.634;18.310;2023-04-06T02:26:43;-1.60;99.90
12386;DHT22;6257;57.634;18.310;2023-04-06T02:29:11;-1.60;99.90
12386;DHT22;6257;57.634;18.310;2023-04-06T02:31:41;-1.70;99.90
12386;DHT22;6257;57.634;18.310;2023-04-06T02:34:08;-1.70;99.90
12386;DHT22;6257;57.634;18.310;2023-04-06T02:36:37;-1.70;99.90
12386;DHT22;6257;57.634;18.310;2023-04-06T02:39:05;-1.70;99.90
12386;DHT22;6257;57.634;18.310;2023-04-06T02:41:32;-1.80;99.90
12386;DHT22;6257;57.634;18.310;2023-04-06T02:43:59;-1.80;99.90
12386;DHT22;6257;57.634;18.310;2023-04-06T02:46:26;-1.90;99.90
12386;DHT22;6257;57.634;18.310;2023-04-06T02:48:55;-1.90;99.90
12386;DHT22;6257;57.634;18.310;2023-04-06T02:51:22;-1.90;99.90
12386;DHT22;6257;57.634;18.310;2023-04-06T02:53:49;-2.00;99.90
12386;DHT22;6257;57.634;18.310;2023-04-06T02:56:16;-2.00;99.90
12386;DHT22;6257;57.634;18.310;2023-04-06T02:58:44;-2.00;99.90
12386;DHT22;6257;57.634;18.310;2023-04-06T03:01:11;-2.00;99.90
12386;DHT22;6257;57.634;18.310;2023-04-06T03:03:38;-2.10;99.90
12386;DHT22;6257;57.634;18.310;2023-04-06T03:06:07;-2.20;99.90
12386;DHT22;6257;57.634;18.310;2023-04-06T03:08:34;-2.20;99.90
12386;DHT22;6257;57.634;18.310;2023-04-06T03:11:01;-2.20;99.90
12386;DHT22;6257;57.634;18.310;2023-04-06T03:13:29;-2.30;99.90
12386;DHT22;6257;57.634;18.310;2023-04-06T03:15:56;-2.30;99.90
12386;DHT22;6257;57.634;18.310;2023-04-06T03:18:24;-2.30;99.90
12386;DHT22;6257;57.634;18.310;2023-04-06T03:20:52;-2.30;99.90
12386;DHT22;6257;57.634;18.310;2023-04-06T03:23:21;-2.30;99.90
12386;DHT22;6257;57.634;18.310;2023-04-06T03:25:49;-2.30;99.90
12386;DHT22;6257;57.634;18.310;2023-04-06T03:28:16;-2.30;99.90
12386;DHT22;6257;57.634;18.310;2023-04-06T03:30:44;-2.30;99.90
12386;DHT22;6257;57.634;18.310;2023-04-06T03:33:11;-2.30;99.90
12386;DHT22;6257;57.634;18.310;2023-04-06T03:35:38;-2.30;99.90
12386;DHT22;6257;57.634;18.310;2023-04-06T03:38:05;-2.30;99.90
12386;DHT22;6257;57.634;18.310;2023-04-06T03:40:34;-2.30;99.90
12386;DHT22;6257;57.634;18.310;2023-04-06T03:43:01;-2.30;99.90
12386;DHT22;6257;57.634;18.310;2023-04-06T03:45:28;-2.20;99.90
12386;DHT22;6257;57.634;18.310;2023-04-06T03:47:56;-2.10;99.90
12386;DHT22;6257;57.634;18.310;2023-04-06T03:50:23;-2.10;99.90
12386;DHT22;6257;57.634;18.310;2023-04-06T03:52:51;-2.10;99.90
12386;DHT22;6257;57.634;18.310;2023-04-06T03:55:18;-2.00;99.90
12386;DHT22;6257;57.634;18.310;2023-04-06T03:57:47;-2.00;99.90
12386;DHT22;6257;57.634;18.310;2023-04-06T04:00:14;-1.80;99.90
12386;DHT22;6257;57.634;18.310;2023-04-06T04:02:42;-1.80;99.90
12386;DHT22;6257;57.634;18.310;2023-04-06T04:05:09;-1.70;99.90
12386;DHT22;6257;57.634;18.310;2023-04-06T04:07:36;-1.70;99.90
12386;DHT22;6257;57.634;18.310;2023-04-06T04:10:04;-1.70;99.90
12386;DHT22;6257;57.634;18.310;2023-04-06T04:12:31;-1.60;99.90
12386;DHT22;6257;57.634;18.310;2023-04-06T04:15:00;-1.60;99.90
12386;DHT22;6257;57.634;18.310;2023-04-06T04:17:28;-1.50;99.90
12386;DHT22;6257;57.634;18.310;2023-04-06T04:19:55;-1.50;99.90
12386;DHT22;6257;57.634;18.310;2023-04-06T04:22:23;-1.40;99.90
12386;DHT22;6257;57.634;18.310;2023-04-06T04:24:50;-1.40;99.90
12386;DHT22;6257;57.634;18.310;2023-04-06T04:27:17;-1.40;99.90
12386;DHT22;6257;57.634;18.310;2023-04-06T04:29:44;-1.40;99.90
12386;DHT22;6257;57.634;18.310;2023-04-06T04:32:13;-1.50;99.90
12386;DHT22;6257;57.634;18.310;2023-04-06T04:34:40;-1.40;99.90
12386;DHT22;6257;57.634;18.310;2023-04-06T04:37:07;-1.50;99.90
12386;DHT22;6257;57.634;18.310;2023-04-06T04:39:35;-1.50;99.90
12386;DHT22;6257;57.634;18.310;2023-04-06T04:42:02;-1.50;99.90
12386;DHT22;6257;57.634;18.310;2023-04-06T04:44:29;-1.50;99.90
12386;DHT22;6257;57.634;18.310;2023-04-06T04:46:56;-1.50;99.90
12386;DHT22;6257;57.634;18.310;2023-04-06T04:49:25;-1.60;99.90
12386;DHT22;6257;57.634;18.310;2023-04-06T04:51:52;-1.60;99.90
12386;DHT22;6257;57.634;18.310;2023-04-06T04:54:19;-1.70;99.90
12386;DHT22;6257;57.634;18.310;2023-04-06T04:56:46;-1.70;99.90
12386;DHT22;6257;57.634;18.310;2023-04-06T04:59:13;-1.70;99.90
12386;DHT22;6257;57.634;18.310;2023-04-06T05:01:42;-1.70;99.90
12386;DHT22;6257;57.634;18.310;2023-04-06T05:04:09;-1.70;99.90
12386;DHT22;6257;57.634;18.310;2023-04-06T05:06:37;-1.60;99.90
12386;DHT22;6257;57.634;18.310;2023-04-06T05:09:05;-1.70;99.90
12386;DHT22;6257;57.634;18.310;2023-04-06T05:11:32;-1.70;99.90
12386;DHT22;6257;57.634;18.310;2023-04-06T05:13:59;-1.60;99.90
12386;DHT22;6257;57.634;18.310;2023-04-06T05:16:27;-1.60;99.90
12386;DHT22;6257;57.634;18.310;2023-04-06T05:18:54;-1.60;99.90
12386;DHT22;6257;57.634;18.310;2023-04-06T05:21:22;-1.60;99.90
12386;DHT22;6257;57.634;18.310;2023-04-06T05:23:51;-1.60;99.90
12386;DHT22;6257;57.634;18.310;2023-04-06T05:26:18;-1.50;99.90
12386;DHT22;6257;57.634;18.310;2023-04-06T05:28:45;-1.40;99.90
12386;DHT22;6257;57.634;18.310;2023-04-06T05:31:12;-1.30;99.90
12386;DHT22;6257;57.634;18.310;2023-04-06T05:33:40;-1.10;99.90
12386;DHT22;6257;57.634;18.310;2023-04-06T05:36:08;-0.90;99.90
12386;DHT22;6257;57.634;18.310;2023-04-06T05:38:37;-0.70;99.90
12386;DHT22;6257;57.634;18.310;2023-04-06T05:41:06;-0.60;99.90
12386;DHT22;6257;57.634;18.310;2023-04-06T05:43:33;-0.40;99.90
12386;DHT22;6257;57.634;18.310;2023-04-06T05:46:00;-0.30;99.90
12386;DHT22;6257;57.634;18.310;2023-04-06T05:48:27;-0.20;99.90
12386;DHT22;6257;57.634;18.310;2023-04-06T05:50:54;-0.10;99.90
12386;DHT22;6257;57.634;18.310;2023-04-06T05:53:22;0.00;99.90
12386;DHT22;6257;57.634;18.310;2023-04-06T05:55:51;0.20;99.90
12386;DHT22;6257;57.634;18.310;2023-04-06T05:58:20;0.30;99.90
12386;DHT22;6257;57.634;18.310;2023-04-06T06:00:47;0.40;99.90
12386;DHT22;6257;57.634;18.310;2023-04-06T06:03:15;0.50;99.90
12386;DHT22;6257;57.634;18.310;2023-04-06T06:05:42;0.40;99.90
12386;DHT22;6257;57.634;18.310;2023-04-06T06:08:09;0.40;99.90
12386;DHT22;6257;57.634;18.310;2023-04-06T06:10:38;0.30;99.90
12386;DHT22;6257;57.634;18.310;2023-04-06T06:13:06;0.20;99.90
12386;DHT22;6257;57.634;18.310;2023-04-06T06:15:34;0.20;99.90
12386;DHT22;6257;57.634;18.310;2023-04-06T06:18:02;0.20;99.90
12386;DHT22;6257;57.634;18.310;2023-04-06T06:20:29;0.40;99.90
12386;DHT22;6257;57.634;18.310;2023-04-06T06:22:56;0.70;99.90
12386;DHT22;6257;57.634;18.310;2023-04-06T06:25:23;1.00;99.90
12386;DHT22;6257;57.634;18.310;2023-04-06T06:27:50;1.20;99.90
12386;DHT22;6257;57.634;18.310;2023-04-06T06:30:18;1.30;99.90
12386;DHT22;6257;57.634;18.310;2023-04-06T06:32:46;1.50;99.90
12386;DHT22;6257;57.634;18.310;2023-04-06T06:35:14;1.60;99.90
12386;DHT22;6257;57.634;18.310;2023-04-06T06:37:41;1.70;99.90
12386;DHT22;6257;57.634;18.310;2023-04-06T06:40:09;1.70;99.90
12386;DHT22;6257;57.634;18.310;2023-04-06T06:42:38;1.80;99.90
12386;DHT22;6257;57.634;18.310;2023-04-06T06:45:08;1.80;99.90
12386;DHT22;6257;57.634;18.310;2023-04-06T06:47:35;1.90;99.90
12386;DHT22;6257;57.634;18.310;2023-04-06T06:50:05;1.90;99.90
12386;DHT22;6257;57.634;18.310;2023-04-06T06:52:32;1.90;99.90
12386;DHT22;6257;57.634;18.310;2023-04-06T06:55:00;2.00;99.90
12386;DHT22;6257;57.634;18.310;2023-04-06T06:57:27;2.10;99.90
12386;DHT22;6257;57.634;18.310;2023-04-06T06:59:54;2.20;99.90
12386;DHT22;6257;57.634;18.310;2023-04-06T07:02:21;2.40;99.90
12386;DHT22;6257;57.634;18.310;2023-04-06T07:04:48;2.40;99.90
12386;DHT22;6257;57.634;18.310;2023-04-06T07:07:17;2.50;99.90
12386;DHT22;6257;57.634;18.310;2023-04-06T07:09:44;2.60;99.90
12386;DHT22;6257;57.634;18.310;2023-04-06T07:12:11;2.60;99.90
12386;DHT22;6257;57.634;18.310;2023-04-06T07:14:39;2.50;99.90
12386;DHT22;6257;57.634;18.310;2023-04-06T07:17:06;2.40;99.90
12386;DHT22;6257;57.634;18.310;2023-04-06T07:19:35;2.40;99.90
12386;DHT22;6257;57.634;18.310;2023-04-06T07:22:02;2.30;99.90
12386;DHT22;6257;57.634;18.310;2023-04-06T07:24:31;2.40;99.90
12386;DHT22;6257;57.634;18.310;2023-04-06T07:26:59;2.50;99.90
12386;DHT22;6257;57.634;18.310;2023-04-06T07:29:27;2.60;99.90
12386;DHT22;6257;57.634;18.310;2023-04-06T07:31:54;2.60;99.90
12386;DHT22;6257;57.634;18.310;2023-04-06T07:34:22;2.70;99.90
12386;DHT22;6257;57.634;18.310;2023-04-06T07:36:49;2.80;99.90
12386;DHT22;6257;57.634;18.310;2023-04-06T07:39:18;3.00;99.90
12386;DHT22;6257;57.634;18.310;2023-04-06T07:41:47;3.10;99.90
12386;DHT22;6257;57.634;18.310;2023-04-06T07:44:14;3.10;99.90
12386;DHT22;6257;57.634;18.310;2023-04-06T07:46:41;3.10;99.90
12386;DHT22;6257;57.634;18.310;2023-04-06T07:49:08;3.00;99.90
12386;DHT22;6257;57.634;18.310;2023-04-06T07:51:36;3.10;99.90
12386;DHT22;6257;57.634;18.310;2023-04-06T07:54:03;2.90;99.90
12386;DHT22;6257;57.634;18.310;2023-04-06T07:56:30;2.90;99.90
12386;DHT22;6257;57.634;18.310;2023-04-06T07:58:59;3.00;99.90
12386;DHT22;6257;57.634;18.310;2023-04-06T08:01:27;3.00;99.90
12386;DHT22;6257;57.634;18.310;2023-04-06T08:03:55;3.20;99.90
12386;DHT22;6257;57.634;18.310;2023-04-06T08:06:22;3.50;99.90
12386;DHT22;6257;57.634;18.310;2023-04-06T08:08:50;4.30;99.90
12386;DHT22;6257;57.634;18.310;2023-04-06T08:11:17;5.00;99.90
12386;DHT22;6257;57.634;18.310;2023-04-06T08:13:44;5.60;99.90
12386;DHT22;6257;57.634;18.310;2023-04-06T08:16:13;6.00;99.90
12386;DHT22;6257;57.634;18.310;2023-04-06T08:18:40;6.30;99.90
12386;DHT22;6257;57.634;18.310;2023-04-06T08:21:07;6.60;99.90
12386;DHT22;6257;57.634;18.310;2023-04-06T08:23:35;6.80;99.90
12386;DHT22;6257;57.634;18.310;2023-04-06T08:26:02;6.70;99.90
12386;DHT22;6257;57.634;18.310;2023-04-06T08:28:29;6.10;99.90
12386;DHT22;6257;57.634;18.310;2023-04-06T08:30:56;5.70;99.90
12386;DHT22;6257;57.634;18.310;2023-04-06T08:33:25;5.20;99.90
12386;DHT22;6257;57.634;18.310;2023-04-06T08:35:52;4.80;99.90
12386;DHT22;6257;57.634;18.310;2023-04-06T08:38:19;5.00;99.90
12386;DHT22;6257;57.634;18.310;2023-04-06T08:40:46;5.90;99.90
12386;DHT22;6257;57.634;18.310;2023-04-06T08:43:17;6.60;99.90
12386;DHT22;6257;57.634;18.310;2023-04-06T08:45:47;7.30;99.90
12386;DHT22;6257;57.634;18.310;2023-04-06T08:48:15;7.90;99.90
12386;DHT22;6257;57.634;18.310;2023-04-06T08:50:44;7.70;99.90
12386;DHT22;6257;57.634;18.310;2023-04-06T08:53:11;7.30;99.90
12386;DHT22;6257;57.634;18.310;2023-04-06T08:55:39;7.00;99.90
12386;DHT22;6257;57.634;18.310;2023-04-06T08:58:07;6.80;99.90
12386;DHT22;6257;57.634;18.310;2023-04-06T09:00:37;6.50;99.90
12386;DHT22;6257;57.634;18.310;2023-04-06T09:03:06;6.60;99.90
12386;DHT22;6257;57.634;18.310;2023-04-06T09:05:34;6.70;99.90
12386;DHT22;6257;57.634;18.310;2023-04-06T09:08:03;6.50;99.90
12386;DHT22;6257;57.634;18.310;2023-04-06T09:10:31;6.50;99.90
12386;DHT22;6257;57.634;18.310;2023-04-06T09:13:04;6.10;99.90
12386;DHT22;6257;57.634;18.310;2023-04-06T09:15:31;6.10;99.90
12386;DHT22;6257;57.634;18.310;2023-04-06T09:17:58;6.20;99.90
12386;DHT22;6257;57.634;18.310;2023-04-06T09:20:26;6.00;99.90
12386;DHT22;6257;57.634;18.310;2023-04-06T09:22:54;5.90;99.90
12386;DHT22;6257;57.634;18.310;2023-04-06T09:25:24;5.70;99.90
12386;DHT22;6257;57.634;18.310;2023-04-06T09:27:59;5.60;99.90
12386;DHT22;6257;57.634;18.310;2023-04-06T09:30:27;5.60;99.90
12386;DHT22;6257;57.634;18.310;2023-04-06T09:32:55;5.40;99.90
12386;DHT22;6257;57.634;18.310;2023-04-06T09:35:23;5.20;99.90
12386;DHT22;6257;57.634;18.310;2023-04-06T09:37:52;5.20;99.90
12386;DHT22;6257;57.634;18.310;2023-04-06T09:40:20;5.00;99.90
12386;DHT22;6257;57.634;18.310;2023-04-06T09:42:50;4.90;99.90
12386;DHT22;6257;57.634;18.310;2023-04-06T09:45:20;5.00;99.90
12386;DHT22;6257;57.634;18.310;2023-04-06T09:47:47;5.10;99.90
12386;DHT22;6257;57.634;18.310;2023-04-06T09:50:15;5.30;99.90
12386;DHT22;6257;57.634;18.310;2023-04-06T09:52:48;5.60;99.90
12386;DHT22;6257;57.634;18.310;2023-04-06T09:55:23;5.60;99.90
12386;DHT22;6257;57.634;18.310;2023-04-06T09:57:58;5.70;99.90
12386;DHT22;6257;57.634;18.310;2023-04-06T10:00:32;5.90;99.90
12386;DHT22;6257;57.634;18.310;2023-04-06T10:03:08;6.10;99.90
12386;DHT22;6257;57.634;18.310;2023-04-06T10:05:43;6.30;99.90
12386;DHT22;6257;57.634;18.310;2023-04-06T10:08:13;6.40;99.90
12386;DHT22;6257;57.634;18.310;2023-04-06T10:10:41;6.40;99.90
12386;DHT22;6257;57.634;18.310;2023-04-06T10:13:11;6.40;99.90
12386;DHT22;6257;57.634;18.310;2023-04-06T10:15:39;6.40;99.90
12386;DHT22;6257;57.634;18.310;2023-04-06T10:18:06;6.30;99.90
12386;DHT22;6257;57.634;18.310;2023-04-06T10:20:39;6.10;99.90
12386;DHT22;6257;57.634;18.310;2023-04-06T10:23:12;5.70;99.90
12386;DHT22;6257;57.634;18.310;2023-04-06T10:25:52;5.50;99.90
12386;DHT22;6257;57.634;18.310;2023-04-06T10:28:22;5.30;99.90
12386;DHT22;6257;57.634;18.310;2023-04-06T10:30:49;5.20;99.90
12386;DHT22;6257;57.634;18.310;2023-04-06T10:33:23;5.20;99.90
12386;DHT22;6257;57.634;18.310;2023-04-06T10:35:50;5.10;99.90
12386;DHT22;6257;57.634;18.310;2023-04-06T10:38:18;5.10;99.90
12386;DHT22;6257;57.634;18.310;2023-04-06T10:40:48;5.10;99.90
12386;DHT22;6257;57.634;18.310;2023-04-06T10:43:19;4.30;99.90
12386;DHT22;6257;57.634;18.310;2023-04-06T10:45:56;5.20;99.90
12386;DHT22;6257;57.634;18.310;2023-04-06T10:48:23;5.40;99.90
12386;DHT22;6257;57.634;18.310;2023-04-06T10:50:52;5.40;99.90
12386;DHT22;6257;57.634;18.310;2023-04-06T10:53:23;5.60;99.90
12386;DHT22;6257;57.634;18.310;2023-04-06T10:55:51;5.50;99.90
12386;DHT22;6257;57.634;18.310;2023-04-06T10:58:24;5.40;99.90
12386;DHT22;6257;57.634;18.310;2023-04-06T11:00:51;5.40;99.90
12386;DHT22;6257;57.634;18.310;2023-04-06T11:03:20;5.30;99.90
12386;DHT22;6257;57.634;18.310;2023-04-06T11:05:50;5.40;99.90
12386;DHT22;6257;57.634;18.310;2023-04-06T11:08:25;5.40;99.90
12386;DHT22;6257;57.634;18.310;2023-04-06T11:11:04;5.50;99.90
12386;DHT22;6257;57.634;18.310;2023-04-06T11:13:37;5.50;99.90
12386;DHT22;6257;57.634;18.310;2023-04-06T11:16:05;5.80;99.90
12386;DHT22;6257;57.634;18.310;2023-04-06T11:18:34;5.80;99.90
12386;DHT22;6257;57.634;18.310;2023-04-06T11:21:01;5.50;99.90
12386;DHT22;6257;57.634;18.310;2023-04-06T11:23:28;5.40;99.90
12386;DHT22;6257;57.634;18.310;2023-04-06T11:25:56;5.30;99.90
12386;DHT22;6257;57.634;18.310;2023-04-06T11:28:23;5.10;99.90
12386;DHT22;6257;57.634;18.310;2023-04-06T11:30:50;4.90;99.90
12386;DHT22;6257;57.634;18.310;2023-04-06T11:33:21;4.70;99.90
12386;DHT22;6257;57.634;18.310;2023-04-06T11:35:50;4.60;99.90
12386;DHT22;6257;57.634;18.310;2023-04-06T11:38:18;4.60;99.90
12386;DHT22;6257;57.634;18.310;2023-04-06T11:40:46;4.70;99.90
12386;DHT22;6257;57.634;18.310;2023-04-06T11:43:13;4.70;99.90
12386;DHT22;6257;57.634;18.310;2023-04-06T11:45:42;4.70;99.90
12386;DHT22;6257;57.634;18.310;2023-04-06T11:48:18;4.70;99.90
12386;DHT22;6257;57.634;18.310;2023-04-06T11:50:47;4.60;99.90
12386;DHT22;6257;57.634;18.310;2023-04-06T11:53:16;4.80;99.90
12386;DHT22;6257;57.634;18.310;2023-04-06T11:55:43;4.90;99.90
12386;DHT22;6257;57.634;18.310;2023-04-06T11:58:12;4.90;99.90
12386;DHT22;6257;57.634;18.310;2023-04-06T12:00:40;4.90;99.90
12386;DHT22;6257;57.634;18.310;2023-04-06T12:03:10;4.90;99.90
12386;DHT22;6257;57.634;18.310;2023-04-06T12:05:38;4.90;99.90
12386;DHT22;6257;57.634;18.310;2023-04-06T12:08:05;4.90;99.90
12386;DHT22;6257;57.634;18.310;2023-04-06T12:10:34;5.00;99.90
12386;DHT22;6257;57.634;18.310;2023-04-06T12:13:01;5.00;99.90
12386;DHT22;6257;57.634;18.310;2023-04-06T12:15:28;5.00;99.90
12386;DHT22;6257;57.634;18.310;2023-04-06T12:17:55;5.00;99.90
12386;DHT22;6257;57.634;18.310;2023-04-06T12:20:22;5.00;99.90
12386;DHT22;6257;57.634;18.310;2023-04-06T12:22:50;5.00;99.90
12386;DHT22;6257;57.634;18.310;2023-04-06T12:25:17;4.90;99.90
12386;DHT22;6257;57.634;18.310;2023-04-06T12:27:46;4.90;99.90
12386;DHT22;6257;57.634;18.310;2023-04-06T12:30:14;4.80;99.90
12386;DHT22;6257;57.634;18.310;2023-04-06T12:32:41;4.80;99.90
12386;DHT22;6257;57.634;18.310;2023-04-06T12:35:09;4.90;99.90
12386;DHT22;6257;57.634;18.310;2023-04-06T12:37:37;4.80;99.90
12386;DHT22;6257;57.634;18.310;2023-04-06T12:40:06;4.80;99.90
12386;DHT22;6257;57.634;18.310;2023-04-06T12:42:36;4.90;99.90
12386;DHT22;6257;57.634;18.310;2023-04-06T12:45:06;5.90;99.90
12386;DHT22;6257;57.634;18.310;2023-04-06T12:47:33;4.90;99.90
12386;DHT22;6257;57.634;18.310;2023-04-06T12:50:01;4.80;99.90
12386;DHT22;6257;57.634;18.310;2023-04-06T12:52:29;4.90;99.90
12386;DHT22;6257;57.634;18.310;2023-04-06T12:54:57;4.90;99.90
12386;DHT22;6257;57.634;18.310;2023-04-06T12:57:25;4.80;99.90
12386;DHT22;6257;57.634;18.310;2023-04-06T12:59:52;4.70;99.90
12386;DHT22;6257;57.634;18.310;2023-04-06T13:02:21;4.80;99.90
12386;DHT22;6257;57.634;18.310;2023-04-06T13:04:49;5.00;99.90
12386;DHT22;6257;57.634;18.310;2023-04-06T13:07:16;5.00;99.90
12386;DHT22;6257;57.634;18.310;2023-04-06T13:09:43;5.10;99.90
12386;DHT22;6257;57.634;18.310;2023-04-06T13:12:12;5.00;99.90
12386;DHT22;6257;57.634;18.310;2023-04-06T13:14:40;5.00;99.90
12386;DHT22;6257;57.634;18.310;2023-04-06T13:17:07;5.10;99.90
12386;DHT22;6257;57.634;18.310;2023-04-06T13:19:35;5.10;99.90
12386;DHT22;6257;57.634;18.310;2023-04-06T13:22:02;5.20;99.90
12386;DHT22;6257;57.634;18.310;2023-04-06T13:24:30;5.10;99.90
12386;DHT22;6257;57.634;18.310;2023-04-06T13:26:57;5.10;99.90
12386;DHT22;6257;57.634;18.310;2023-04-06T13:29:24;5.20;99.90
12386;DHT22;6257;57.634;18.310;2023-04-06T13:31:51;5.30;99.90
12386;DHT22;6257;57.634;18.310;2023-04-06T13:34:19;5.40;99.90
12386;DHT22;6257;57.634;18.310;2023-04-06T13:36:47;5.50;99.90
12386;DHT22;6257;57.634;18.310;2023-04-06T13:39:14;5.50;99.90
12386;DHT22;6257;57.634;18.310;2023-04-06T13:41:42;5.60;99.90
12386;DHT22;6257;57.634;18.310;2023-04-06T13:44:09;5.60;99.90
12386;DHT22;6257;57.634;18.310;2023-04-06T13:46:36;5.60;99.90
12386;DHT22;6257;57.634;18.310;2023-04-06T13:49:03;5.60;99.90
12386;DHT22;6257;57.634;18.310;2023-04-06T13:51:31;5.60;99.90
12386;DHT22;6257;57.634;18.310;2023-04-06T13:53:59;5.60;99.90
12386;DHT22;6257;57.634;18.310;2023-04-06T13:56:27;5.60;99.90
12386;DHT22;6257;57.634;18.310;2023-04-06T13:58:54;5.80;99.90
12386;DHT22;6257;57.634;18.310;2023-04-06T14:01:22;5.80;99.90
12386;DHT22;6257;57.634;18.310;2023-04-06T14:03:50;5.90;99.90
12386;DHT22;6257;57.634;18.310;2023-04-06T14:06:17;5.80;99.90
12386;DHT22;6257;57.634;18.310;2023-04-06T14:08:44;5.80;99.90
12386;DHT22;6257;57.634;18.310;2023-04-06T14:11:13;5.70;99.90
12386;DHT22;6257;57.634;18.310;2023-04-06T14:13:40;5.70;99.90
12386;DHT22;6257;57.634;18.310;2023-04-06T14:16:07;5.70;99.90
12386;DHT22;6257;57.634;18.310;2023-04-06T14:18:36;5.60;99.90
12386;DHT22;6257;57.634;18.310;2023-04-06T14:21:04;5.60;99.90
12386;DHT22;6257;57.634;18.310;2023-04-06T14:23:31;5.60;99.90
12386;DHT22;6257;57.634;18.310;2023-04-06T14:26:02;5.50;99.90
12386;DHT22;6257;57.634;18.310;2023-04-06T14:28:33;5.50;99.90
12386;DHT22;6257;57.634;18.310;2023-04-06T14:31:00;5.60;99.90
12386;DHT22;6257;57.634;18.310;2023-04-06T14:33:29;5.70;99.90
12386;DHT22;6257;57.634;18.310;2023-04-06T14:35:56;5.60;99.90
12386;DHT22;6257;57.634;18.310;2023-04-06T14:38:24;5.60;99.90
12386;DHT22;6257;57.634;18.310;2023-04-06T14:40:51;5.80;99.90
12386;DHT22;6257;57.634;18.310;2023-04-06T14:43:18;5.90;99.90
12386;DHT22;6257;57.634;18.310;2023-04-06T14:48:13;6.10;99.90
12386;DHT22;6257;57.634;18.310;2023-04-06T14:50:51;6.10;99.90
12386;DHT22;6257;57.634;18.310;2023-04-06T14:53:19;5.90;99.90
12386;DHT22;6257;57.634;18.310;2023-04-06T14:55:46;6.00;99.90
12386;DHT22;6257;57.634;18.310;2023-04-06T14:58:15;6.00;99.90
12386;DHT22;6257;57.634;18.310;2023-04-06T15:00:42;5.90;99.90
12386;DHT22;6257;57.634;18.310;2023-04-06T15:03:10;5.70;99.90
12386;DHT22;6257;57.634;18.310;2023-04-06T15:05:38;5.60;99.90
12386;DHT22;6257;57.634;18.310;2023-04-06T15:08:05;5.70;99.90
12386;DHT22;6257;57.634;18.310;2023-04-06T15:10:32;5.50;99.90
12386;DHT22;6257;57.634;18.310;2023-04-06T15:12:59;5.30;99.90
12386;DHT22;6257;57.634;18.310;2023-04-06T15:15:26;5.00;99.90
12386;DHT22;6257;57.634;18.310;2023-04-06T15:17:54;4.90;99.90
12386;DHT22;6257;57.634;18.310;2023-04-06T15:20:23;4.80;99.90
12386;DHT22;6257;57.634;18.310;2023-04-06T15:22:50;4.70;99.90
12386;DHT22;6257;57.634;18.310;2023-04-06T15:25:17;4.70;99.90
12386;DHT22;6257;57.634;18.310;2023-04-06T15:27:44;4.60;99.90
12386;DHT22;6257;57.634;18.310;2023-04-06T15:30:12;4.60;99.90
12386;DHT22;6257;57.634;18.310;2023-04-06T15:32:39;4.50;99.90
12386;DHT22;6257;57.634;18.310;2023-04-06T15:35:10;4.40;99.90
12386;DHT22;6257;57.634;18.310;2023-04-06T15:37:39;4.40;99.90
12386;DHT22;6257;57.634;18.310;2023-04-06T15:40:08;4.30;99.90
12386;DHT22;6257;57.634;18.310;2023-04-06T15:42:38;4.30;99.90
12386;DHT22;6257;57.634;18.310;2023-04-06T15:45:08;4.20;99.90
12386;DHT22;6257;57.634;18.310;2023-04-06T15:47:36;4.20;99.90